सभी
Wilcannia Airport (Wilcannia, New South Wales) WIO मौसम
|
Wilcannia, New South Wales (WIO / YWCA)
स्वच्छ आकाश
हल्की हवाएं |
|
10 °C |
There is no TAF data available at WIO or any nearby airports.
Recent WIO METAR history
| Date | Time (AEST) | Flight Rules | Wind Dir. | Speed | Type | Height AGL (ft) | Visibility | Temp (°C) | Temp (°F) | Dew Point (°C) | Dew Point (°F) | Rel. Humid. | Pressure | Density Altitude | Remarks |
|---|---|---|---|---|---|---|---|---|---|---|---|---|---|---|---|
| 05-मई | 01:00 | n/a | 270° | 6 kt | Missing | 10° | 50° | 7° | 44° | 82% | 1019 mb | -521 ft | |||
| 05-मई | 00:00 | n/a | 290° | 7 kt | Missing | 11° | 51° | 7° | 44° | 76% | 1019 mb | -401 ft | |||
| 04-मई | 23:00 | n/a | 300° | 7 kt | Missing | 11° | 51° | 7° | 44° | 76% | 1019 mb | -401 ft | |||
| 04-मई | 22:00 | n/a | 300° | 7 kt | Missing | 11° | 51° | 8° | 46° | 82% | 1020 mb | -431 ft | |||
| 04-मई | 21:00 | n/a | 290° | 6 kt | Missing | 12° | 53° | 8° | 46° | 76% | 1019 mb | -281 ft | |||
| 04-मई | 20:00 | n/a | 290° | 6 kt | Missing | 12° | 53° | 8° | 46° | 76% | 1019 mb | -281 ft | |||
| 04-मई | 19:00 | n/a | 290° | 7 kt | Missing | 14° | 57° | 8° | 46° | 67% | 1018 mb | -12 ft | |||
| 04-मई | 18:00 | n/a | 260° | 7 kt | Missing | 17° | 62° | 7° | 44° | 52% | 1017 mb | 378 ft | |||
| 04-मई | 17:00 | n/a | 270° | 11 kt | Missing | 21° | 69° | 5° | 41° | 35% | 1016 mb | 888 ft | |||
| 04-मई | 16:00 | n/a | 290° | 12 kt | Missing | 21° | 69° | 4° | 39° | 33% | 1016 mb | 888 ft | |||
| 04-मई | 15:00 | n/a | 300° | 12 kt | Missing | 22° | 71° | 4° | 39° | 31% | 1016 mb | 1,008 ft | |||
| 04-मई | 14:00 | n/a | 290° | 11 kt | Missing | 22° | 71° | 5° | 41° | 33% | 1016 mb | 1,008 ft | |||
| 04-मई | 13:00 | n/a | 280° | 11 kt | Missing | 22° | 71° | 6° | 42° | 35% | 1016 mb | 1,008 ft | |||
| 04-मई | 12:00 | n/a | 280° | 11 kt | Missing | 21° | 69° | 7° | 44° | 40% | 1017 mb | 858 ft | |||
| 04-मई | 11:00 | n/a | 280° | 9 kt | Missing | 20° | 68° | 8° | 46° | 46% | 1018 mb | 708 ft | |||
| 04-मई | 10:00 | n/a | 280° | 5 kt | Missing | 17° | 62° | 11° | 51° | 68% | 1018 mb | 348 ft | |||
| 04-मई | 09:00 | n/a | 300° | 7 kt | Missing | 14° | 57° | 11° | 51° | 82% | 1018 mb | -12 ft | |||
| 04-मई | 08:00 | n/a | 300° | 6 kt | Missing | 11° | 51° | 10° | 50° | 94% | 1017 mb | -342 ft | |||
| 04-मई | 07:00 | n/a | 300° | 6 kt | Missing | 8° | 46° | 7° | 44° | 93% | 1016 mb | -672 ft | |||
| 04-मई | 06:00 | n/a | 280° | 6 kt | Missing | 9° | 48° | 8° | 46° | 93% | 1016 mb | -552 ft | |||
| 04-मई | 05:00 | n/a | 290° | 7 kt | Missing | 9° | 48° | 8° | 46° | 93% | 1016 mb | -552 ft | |||
| 04-मई | 04:00 | n/a | 280° | 6 kt | Missing | 10° | 50° | 8° | 46° | 87% | 1015 mb | -403 ft | |||
| 04-मई | 03:00 | n/a | 300° | 7 kt | Missing | 10° | 50° | 9° | 48° | 93% | 1016 mb | -432 ft | |||
| 04-मई | 02:00 | n/a | 290° | 6 kt | Missing | 11° | 51° | 9° | 48° | 87% | 1016 mb | -312 ft |
लॉगिन
| Your browser is unsupported. अपना ब्राऊजर अपग्रेड करें |
